Time;durP1;ratioP1;P1;durP2;ratioP2;P2;SDS_P1;SDS_P2;PMS_P1;PMS_P2;Temp;Humidity;BMP_temperature;BMP_pressure;BME280_temperature;BME280_humidity;BME280_pressure;Samples;Min_cycle;Max_cycle;Signal;HPM_P1;HPM_P2
2021/12/31 00:00:38;;;;;;;9.13;2.92;;;;;;;14.01;100.00;101606.81;5051288;28;20055;-69
2021/12/31 00:03:03;;;;;;;8.88;3.30;;;;;;;14.10;100.00;101602.34;5063703;28;20029;-68
2021/12/31 00:05:29;;;;;;;11.32;3.13;;;;;;;14.20;100.00;101604.19;5043675;28;20048;-69
2021/12/31 00:07:54;;;;;;;10.48;3.33;;;;;;;14.07;100.00;101611.19;5054539;28;20232;-70
2021/12/31 00:10:19;;;;;;;11.43;3.20;;;;;;;14.32;100.00;101607.41;5061746;28;20128;-71
2021/12/31 00:12:45;;;;;;;7.65;2.83;;;;;;;14.05;100.00;101585.84;5027272;28;20483;-69
2021/12/31 00:15:12;;;;;;;11.52;3.08;;;;;;;14.24;100.00;101588.72;5060444;28;20135;-70
2021/12/31 00:17:39;;;;;;;6.40;3.15;;;;;;;14.36;100.00;101596.59;5044965;28;20035;-68
2021/12/31 00:20:11;;;;;;;8.00;3.00;;;;;;;14.29;100.00;101591.41;5039825;28;20077;-69
2021/12/31 00:25:03;;;;;;;8.68;2.90;;;;;;;14.39;100.00;101585.00;5042053;28;20021;-70
2021/12/31 00:27:28;;;;;;;7.65;2.88;;;;;;;14.25;100.00;101584.84;5024759;28;20041;-70
2021/12/31 00:29:53;;;;;;;9.02;2.70;;;;;;;14.25;100.00;101584.84;5034310;28;20070;-68
2021/12/31 00:32:19;;;;;;;8.25;2.88;;;;;;;14.34;100.00;101593.31;5052102;28;20036;-70
2021/12/31 00:34:45;;;;;;;5.80;2.80;;;;;;;14.44;100.00;101575.84;5051384;28;20417;-68
2021/12/31 00:37:11;;;;;;;9.75;2.50;;;;;;;14.49;100.00;101589.59;5039446;28;20565;-69
2021/12/31 00:39:37;;;;;;;8.65;3.13;;;;;;;14.49;100.00;101589.59;5029063;28;20059;-69
2021/12/31 00:42:03;;;;;;;6.25;2.42;;;;;;;14.44;100.00;101597.91;5040795;28;20707;-69
2021/12/31 00:44:29;;;;;;;7.80;3.08;;;;;;;14.38;100.00;101599.06;5043032;28;20116;-69
2021/12/31 00:46:55;;;;;;;9.82;3.17;;;;;;;14.43;100.00;101601.78;5025534;28;20806;-70
2021/12/31 00:49:20;;;;;;;7.88;2.55;;;;;;;14.57;100.00;101611.03;5040837;28;20029;-69
2021/12/31 00:51:47;;;;;;;9.85;2.80;;;;;;;14.54;100.00;101597.81;5040383;28;20040;-69
2021/12/31 00:54:13;;;;;;;7.45;2.33;;;;;;;14.61;100.00;101606.63;5039812;28;20021;-70
2021/12/31 00:56:39;;;;;;;6.63;2.70;;;;;;;14.47;100.00;101589.06;5041703;28;20108;-68
2021/12/31 00:59:04;;;;;;;6.28;3.25;;;;;;;14.35;100.00;101594.97;5041680;28;20376;-69
2021/12/31 01:01:34;;;;;;;8.88;3.10;;;;;;;14.30;100.00;101595.84;5043580;28;20399;-70
2021/12/31 01:03:59;;;;;;;6.10;3.20;;;;;;;14.26;100.00;101580.16;5040471;28;20093;-69
2021/12/31 01:06:25;;;;;;;10.75;3.13;;;;;;;14.30;100.00;101611.56;5042180;28;20052;-70
2021/12/31 01:08:50;;;;;;;9.82;2.80;;;;;;;14.20;100.00;101604.19;5040570;28;20043;-69
2021/12/31 01:11:16;;;;;;;9.38;3.35;;;;;;;14.13;100.00;101593.50;5024877;28;20035;-69
2021/12/31 01:13:58;;;;;;;8.63;3.38;;;;;;;14.29;100.00;101598.88;5041000;28;20033;-70
2021/12/31 01:16:34;;;;;;;9.50;3.10;;;;;;;14.22;100.00;101596.44;5064097;28;20360;-68
2021/12/31 01:21:25;;;;;;;11.68;3.55;;;;;;;14.25;100.00;101598.63;5046869;28;20492;-68
2021/12/31 01:23:51;;;;;;;10.75;2.83;;;;;;;14.43;100.00;101594.34;5042181;28;20451;-68
2021/12/31 01:26:17;;;;;;;8.70;2.90;;;;;;;14.21;100.00;101597.56;5063492;28;20467;-69
2021/12/31 01:28:43;;;;;;;7.72;2.78;;;;;;;14.17;100.00;101610.28;5042564;28;20097;-69
2021/12/31 01:31:08;;;;;;;8.27;2.88;;;;;;;14.31;100.00;101604.91;5062131;28;20029;-68
2021/12/31 01:33:33;;;;;;;5.70;2.88;;;;;;;14.38;100.00;101599.91;5060005;28;20028;-69
2021/12/31 01:35:59;;;;;;;6.72;2.90;;;;;;;14.32;100.00;101612.09;5051767;28;20039;-70
2021/12/31 01:38:25;;;;;;;7.68;2.55;;;;;;;14.47;100.00;101608.38;5043332;28;20045;-68
2021/12/31 01:40:51;;;;;;;13.20;3.40;;;;;;;14.33;100.00;101619.25;5025499;28;20396;-69
2021/12/31 01:43:18;;;;;;;7.32;3.15;;;;;;;14.45;100.00;101610.59;5052507;28;20056;-70
2021/12/31 01:45:53;;;;;;;9.65;2.65;;;;;;;14.40;100.00;101617.00;5049201;28;20094;-69
2021/12/31 01:48:33;;;;;;;6.47;2.72;;;;;;;14.58;100.00;101604.41;5042899;28;20800;-70
2021/12/31 01:50:58;;;;;;;8.27;2.95;;;;;;;14.55;100.00;101604.19;5042143;28;20419;-69
2021/12/31 01:53:26;;;;;;;6.25;2.95;;;;;;;14.47;100.00;101598.16;5042191;28;20100;-69
2021/12/31 01:55:55;;;;;;;7.45;3.10;;;;;;;14.47;100.00;101597.34;5045340;28;20060;-69
2021/12/31 01:58:24;;;;;;;11.15;3.15;;;;;;;14.51;100.00;101595.63;5046576;28;21078;-70
2021/12/31 02:00:50;;;;;;;9.43;2.83;;;;;;;14.47;100.00;101597.34;5046361;28;20052;-69
2021/12/31 02:03:24;;;;;;;8.13;2.97;;;;;;;14.51;100.00;101595.63;5048126;28;20082;-69
2021/12/31 02:05:50;;;;;;;7.13;2.47;;;;;;;14.45;100.00;101591.31;5049797;28;20120;-69
2021/12/31 02:08:16;;;;;;;7.47;3.03;;;;;;;14.40;100.00;101597.69;5027305;28;20120;-70
2021/12/31 02:10:43;;;;;;;9.52;2.88;;;;;;;14.54;100.00;101597.81;5050454;28;20059;-69
2021/12/31 02:13:09;;;;;;;5.85;3.00;;;;;;;14.56;100.00;101606.66;5048048;28;20423;-69
2021/12/31 02:15:35;;;;;;;6.60;3.00;;;;;;;14.36;100.00;101601.31;5042636;28;20025;-72
2021/12/31 02:18:03;;;;;;;7.20;2.90;;;;;;;14.55;100.00;101620.72;5066207;28;20029;-68
2021/12/31 02:20:44;;;;;;;6.00;2.72;;;;;;;14.45;100.00;101607.84;5035832;28;20377;-70
2021/12/31 02:23:18;;;;;;;8.10;2.70;;;;;;;14.51;100.00;101598.38;5048776;28;20035;-69
2021/12/31 02:25:44;;;;;;;8.48;2.90;;;;;;;14.35;100.00;101600.50;5044325;28;20017;-70
2021/12/31 02:28:09;;;;;;;5.65;2.70;;;;;;;14.53;100.00;101602.53;5051656;28;20028;-70
2021/12/31 02:30:35;;;;;;;6.97;2.83;;;;;;;14.44;100.00;101597.91;5056514;28;20029;-70
2021/12/31 02:33:03;;;;;;;6.88;2.95;;;;;;;14.60;100.00;101598.63;5044364;28;20029;-71
2021/12/31 02:35:29;;;;;;;4.60;2.63;;;;;;;14.69;100.00;101603.22;5059332;28;20055;-70
2021/12/31 02:37:55;;;;;;;7.85;3.10;;;;;;;14.45;100.00;101599.56;5060671;28;20146;-69
2021/12/31 02:40:23;;;;;;;6.75;3.03;;;;;;;14.61;100.00;101603.88;5063008;28;20061;-70
2021/12/31 02:42:49;;;;;;;5.72;2.65;;;;;;;14.47;100.00;101603.66;5054229;28;20050;-70
2021/12/31 02:45:15;;;;;;;7.95;3.00;;;;;;;14.57;100.00;101612.97;5044651;28;20060;-68
2021/12/31 02:47:45;;;;;;;6.90;3.03;;;;;;;14.54;100.00;101611.59;5030047;28;20352;-69
2021/12/31 02:50:17;;;;;;;5.97;2.75;;;;;;;14.49;100.00;101603.38;5058669;28;20032;-69
2021/12/31 02:52:45;;;;;;;7.10;3.10;;;;;;;14.32;100.00;101612.09;5050391;28;20068;-70
2021/12/31 02:55:11;;;;;;;7.35;3.25;;;;;;;14.75;100.00;101600.41;5026428;28;20213;-69
2021/12/31 02:57:40;;;;;;;6.40;2.60;;;;;;;14.48;100.00;101593.47;5044882;28;20043;-70
2021/12/31 03:00:08;;;;;;;6.82;2.88;;;;;;;14.33;100.00;101589.75;5042906;28;20033;-70
2021/12/31 03:02:37;;;;;;;5.18;3.20;;;;;;;14.31;100.00;101586.47;5043793;28;20056;-69
2021/12/31 03:05:03;;;;;;;7.78;3.75;;;;;;;14.29;100.00;101599.69;5038116;28;20025;-69
2021/12/31 03:07:30;;;;;;;6.53;3.13;;;;;;;14.59;100.00;101580.38;5026338;28;20536;-71
2021/12/31 03:09:58;;;;;;;7.07;2.65;;;;;;;14.41;100.00;101581.94;5045854;28;20025;-69
2021/12/31 03:12:24;;;;;;;7.20;3.92;;;;;;;14.50;100.00;101571.94;5044579;28;20116;-70
2021/12/31 03:14:52;;;;;;;7.63;2.83;;;;;;;14.45;100.00;101574.75;5042773;28;20418;-69
2021/12/31 03:17:18;;;;;;;6.82;2.80;;;;;;;14.37;100.00;101576.19;5028192;28;20114;-71
2021/12/31 03:19:44;;;;;;;10.82;2.72;;;;;;;14.27;100.00;101574.34;5052883;28;20064;-70
2021/12/31 03:22:10;;;;;;;7.20;2.80;;;;;;;14.50;100.00;101574.69;5044357;28;20146;-70
2021/12/31 03:24:35;;;;;;;9.32;2.60;;;;;;;14.23;100.00;101566.94;5064044;28;20111;-70
2021/12/31 03:27:01;;;;;;;5.32;2.47;;;;;;;14.53;100.00;101568.59;5061966;28;20028;-70
2021/12/31 03:29:26;;;;;;;4.72;2.30;;;;;;;14.51;100.00;101568.88;5066661;28;20475;-71
2021/12/31 03:31:53;;;;;;;7.25;2.53;;;;;;;14.54;100.00;101567.47;5052646;28;20028;-71
2021/12/31 03:34:19;;;;;;;7.53;2.38;;;;;;;14.29;100.00;101558.31;5023374;28;20447;-70
2021/12/31 03:36:50;;;;;;;6.55;2.45;;;;;;;14.37;100.00;101567.09;5064854;28;20126;-68
2021/12/31 03:39:16;;;;;;;6.88;2.70;;;;;;;14.50;100.00;101569.19;5046864;28;20131;-69
2021/12/31 03:41:44;;;;;;;5.40;2.33;;;;;;;14.62;100.00;101568.81;5055453;28;20464;-68
2021/12/31 03:44:09;;;;;;;4.85;2.33;;;;;;;14.43;100.00;101571.44;5043629;28;20036;-69
2021/12/31 03:46:34;;;;;;;6.68;2.45;;;;;;;14.72;100.00;101559.59;5025792;28;20213;-69
2021/12/31 03:49:00;;;;;;;5.07;2.03;;;;;;;14.53;100.00;101574.94;5023054;28;20514;-69
2021/12/31 03:51:25;;;;;;;4.55;2.28;;;;;;;14.51;100.00;101576.31;5045949;28;20078;-69
2021/12/31 03:53:52;;;;;;;5.25;2.42;;;;;;;14.49;100.00;101584.06;5040715;28;20051;-69
2021/12/31 03:56:21;;;;;;;5.25;2.22;;;;;;;14.64;100.00;101580.38;5042912;28;20032;-69
2021/12/31 03:58:46;;;;;;;5.45;2.55;;;;;;;14.58;100.00;101585.09;5027254;28;20051;-70
2021/12/31 04:01:11;;;;;;;4.03;1.90;;;;;;;14.61;100.00;101572.66;5045036;28;20654;-70
2021/12/31 04:03:37;;;;;;;3.55;1.80;;;;;;;14.61;100.00;101570.75;5047073;28;20035;-70
2021/12/31 04:06:02;;;;;;;4.63;2.20;;;;;;;14.55;100.00;101565.53;5041065;28;20045;-71
2021/12/31 04:08:28;;;;;;;5.93;2.17;;;;;;;14.34;100.00;101543.66;5046593;28;20032;-70
2021/12/31 04:10:53;;;;;;;5.60;2.10;;;;;;;14.48;100.00;101568.66;5063712;28;20027;-69
2021/12/31 04:13:20;;;;;;;7.25;2.42;;;;;;;14.38;100.00;101553.00;5047125;28;20031;-71
2021/12/31 04:15:46;;;;;;;5.57;2.30;;;;;;;14.49;100.00;101567.53;5062712;28;20034;-69
2021/12/31 04:18:11;;;;;;;4.45;2.10;;;;;;;14.44;100.00;101551.00;5061390;28;20875;-69
2021/12/31 04:20:41;;;;;;;6.57;2.30;;;;;;;14.18;100.00;101539.41;5061351;28;20020;-70
2021/12/31 04:23:14;;;;;;;5.50;2.70;;;;;;;14.21;100.00;101558.13;5059656;28;20021;-70
2021/12/31 04:25:39;;;;;;;3.67;2.03;;;;;;;14.18;100.00;101562.28;5063860;28;20058;-70
2021/12/31 04:28:06;;;;;;;6.15;2.53;;;;;;;14.17;100.00;101546.84;5062876;28;20044;-69
2021/12/31 04:30:32;;;;;;;5.00;2.30;;;;;;;14.18;100.00;101545.72;5063986;28;20032;-70
2021/12/31 04:32:59;;;;;;;5.18;1.80;;;;;;;14.24;100.00;101543.78;5063424;28;20515;-69
2021/12/31 04:35:25;;;;;;;2.58;2.00;;;;;;;14.30;100.00;101546.19;5060424;28;20411;-68
2021/12/31 04:37:50;;;;;;;4.68;1.88;;;;;;;14.28;100.00;101539.31;5061593;28;20059;-70
2021/12/31 04:40:16;;;;;;;3.13;1.92;;;;;;;14.21;100.00;101533.31;5046792;28;20652;-70
2021/12/31 04:42:42;;;;;;;5.38;1.80;;;;;;;14.16;100.00;101542.44;5025847;28;20061;-71
2021/12/31 04:45:12;;;;;;;8.07;2.38;;;;;;;14.01;100.00;101523.28;5041829;28;20021;-69
2021/12/31 04:47:39;;;;;;;6.25;2.40;;;;;;;14.23;100.00;101523.66;5044103;28;20024;-70
2021/12/31 04:50:05;;;;;;;3.80;2.10;;;;;;;14.20;100.00;101520.63;5039763;28;20392;-69
2021/12/31 04:52:31;;;;;;;6.10;2.33;;;;;;;13.94;100.00;101518.94;5056656;28;20382;-70
2021/12/31 04:54:57;;;;;;;3.83;2.13;;;;;;;14.00;100.00;101516.13;5063236;28;20491;-69
2021/12/31 04:57:25;;;;;;;5.45;2.00;;;;;;;14.18;100.00;101506.31;5063222;28;20029;-69
2021/12/31 04:59:50;;;;;;;5.50;2.30;;;;;;;14.01;100.00;101512.25;5064845;28;20043;-70
2021/12/31 05:02:16;;;;;;;4.45;2.13;;;;;;;14.25;100.00;101509.53;5063061;28;20400;-69
2021/12/31 05:04:41;;;;;;;6.78;2.00;;;;;;;14.22;100.00;101519.22;5052287;28;20090;-70
2021/12/31 05:07:07;;;;;;;4.65;2.22;;;;;;;14.20;100.00;101534.41;5039682;28;20692;-69
2021/12/31 05:09:32;;;;;;;2.70;1.70;;;;;;;13.99;100.00;101529.09;5026318;28;20037;-70
2021/12/31 05:11:59;;;;;;;5.65;2.10;;;;;;;14.03;100.00;101529.34;5047974;28;20028;-68
2021/12/31 05:14:24;;;;;;;4.38;1.90;;;;;;;13.87;100.00;101532.22;5033368;28;20051;-69
2021/12/31 05:16:50;;;;;;;6.43;2.00;;;;;;;14.01;100.00;101535.13;5047844;28;20483;-70
2021/12/31 05:19:16;;;;;;;3.45;1.88;;;;;;;14.01;100.00;101534.31;5059793;28;20305;-70
2021/12/31 05:21:43;;;;;;;3.33;2.05;;;;;;;14.00;100.00;101544.50;5038081;28;20107;-71
2021/12/31 05:24:08;;;;;;;5.07;2.10;;;;;;;14.07;100.00;101539.50;5023699;28;20029;-69
2021/12/31 05:26:34;;;;;;;4.80;2.70;;;;;;;13.88;100.00;101538.56;5042348;28;20060;-70
2021/12/31 05:29:01;;;;;;;3.80;2.20;;;;;;;14.25;100.00;101539.88;5046557;28;20033;-70
2021/12/31 05:31:27;;;;;;;3.28;1.80;;;;;;;14.10;100.00;101538.06;5056173;28;20024;-70
2021/12/31 05:33:52;;;;;;;4.53;2.20;;;;;;;14.05;100.00;101524.34;5064000;28;20044;-70
2021/12/31 05:36:18;;;;;;;3.78;1.95;;;;;;;14.03;100.00;101532.91;5066241;28;20036;-69
2021/12/31 05:38:43;;;;;;;5.22;1.85;;;;;;;14.07;100.00;101522.09;5065723;28;20109;-69
2021/12/31 05:41:10;;;;;;;7.03;2.22;;;;;;;13.87;100.00;101529.47;5046408;28;20485;-71
2021/12/31 05:43:35;;;;;;;3.53;1.80;;;;;;;13.97;100.00;101528.56;5029559;28;20037;-69
2021/12/31 05:46:01;;;;;;;5.13;2.00;;;;;;;13.94;100.00;101524.44;5056334;28;20032;-69
2021/12/31 05:48:29;;;;;;;4.68;2.22;;;;;;;13.73;100.00;101522.97;5063179;28;20058;-71
2021/12/31 05:50:54;;;;;;;5.03;2.15;;;;;;;13.93;100.00;101517.28;5065618;28;20032;-69
2021/12/31 05:53:20;;;;;;;4.13;1.90;;;;;;;13.70;100.00;101504.22;5063309;28;20287;-70
2021/12/31 05:55:46;;;;;;;4.90;1.95;;;;;;;13.74;100.00;101519.91;5066013;28;20046;-70
2021/12/31 05:58:11;;;;;;;4.47;1.80;;;;;;;13.62;100.00;101524.94;5066146;28;20036;-69
2021/12/31 06:00:36;;;;;;;6.22;2.35;;;;;;;13.77;100.00;101507.47;5065782;28;20056;-69
2021/12/31 06:03:02;;;;;;;5.00;2.17;;;;;;;13.70;100.00;101515.25;5066215;28;20059;-70
2021/12/31 06:05:28;;;;;;;5.55;2.10;;;;;;;13.75;100.00;101515.22;5045486;28;20032;-69
2021/12/31 06:07:56;;;;;;;5.60;2.10;;;;;;;13.70;100.00;101498.72;5046151;28;20111;-70
2021/12/31 06:10:22;;;;;;;7.35;2.50;;;;;;;13.87;100.00;101496.41;5065242;28;20024;-71
2021/12/31 06:12:50;;;;;;;3.53;2.22;;;;;;;13.76;100.00;101490.13;5066786;28;20475;-69
2021/12/31 06:15:18;;;;;;;4.93;2.10;;;;;;;13.69;100.00;101484.13;5047934;28;20037;-69
2021/12/31 06:17:44;;;;;;;5.38;2.13;;;;;;;13.69;100.00;101480.53;5066070;28;20104;-70
2021/12/31 06:20:10;;;;;;;3.97;2.28;;;;;;;13.76;100.00;101494.81;5062500;28;20067;-69
2021/12/31 06:22:36;;;;;;;6.38;2.47;;;;;;;13.64;100.00;101486.91;5057366;28;20034;-68
2021/12/31 06:25:02;;;;;;;4.75;2.20;;;;;;;13.69;100.00;101488.81;5039949;28;20033;-70
2021/12/31 06:27:27;;;;;;;6.28;2.40;;;;;;;13.51;100.00;101482.88;5044681;28;20036;-68
2021/12/31 06:29:53;;;;;;;4.45;2.20;;;;;;;13.75;100.00;101485.72;5047049;28;20021;-70
2021/12/31 06:32:18;;;;;;;6.53;2.50;;;;;;;13.88;100.00;101481.47;5044623;28;20044;-70
2021/12/31 06:34:45;;;;;;;5.82;2.67;;;;;;;13.63;100.00;101487.22;5061280;28;20074;-70
2021/12/31 06:37:10;;;;;;;4.85;2.67;;;;;;;13.62;100.00;101482.81;5028898;28;20376;-69
2021/12/31 06:39:36;;;;;;;4.30;2.63;;;;;;;13.64;100.00;101484.16;5043205;28;20039;-69
2021/12/31 06:42:03;;;;;;;5.72;2.38;;;;;;;13.48;100.00;101494.47;5043965;28;20531;-70
2021/12/31 06:44:32;;;;;;;5.35;2.30;;;;;;;13.57;100.00;101500.19;5044816;28;20143;-70
2021/12/31 06:46:57;;;;;;;6.90;2.60;;;;;;;13.57;100.00;101481.72;5044530;28;20029;-69
2021/12/31 06:49:23;;;;;;;5.40;2.40;;;;;;;13.55;100.00;101491.41;5026195;28;20041;-69
2021/12/31 06:51:49;;;;;;;6.25;2.55;;;;;;;13.34;100.00;101499.78;5044200;28;20115;-70
2021/12/31 06:54:15;;;;;;;6.28;2.20;;;;;;;13.47;100.00;101492.00;5029792;28;20123;-69
2021/12/31 06:56:42;;;;;;;5.00;2.13;;;;;;;13.53;100.00;101507.41;5048381;28;20542;-70
2021/12/31 06:59:08;;;;;;;5.40;2.50;;;;;;;13.31;100.00;101492.06;5047669;28;20506;-70
2021/12/31 07:01:34;;;;;;;9.95;2.85;;;;;;;13.34;100.00;101497.03;5065963;28;20044;-70
2021/12/31 07:03:59;;;;;;;6.32;2.30;;;;;;;13.36;100.00;101502.25;5053209;28;20036;-70
2021/12/31 07:06:24;;;;;;;3.78;2.55;;;;;;;13.33;100.00;101503.66;5062162;28;20230;-71
2021/12/31 07:08:50;;;;;;;4.30;2.55;;;;;;;13.46;100.00;101515.13;5048947;28;20385;-71
2021/12/31 07:11:17;;;;;;;8.23;2.28;;;;;;;13.62;100.00;101513.94;5043914;28;20029;-69
2021/12/31 07:13:43;;;;;;;7.35;3.13;;;;;;;13.51;100.00;101524.22;5027553;28;20041;-73
2021/12/31 07:16:08;;;;;;;5.57;2.25;;;;;;;13.35;100.00;101517.16;5044572;28;20391;-70
2021/12/31 07:18:34;;;;;;;3.60;2.65;;;;;;;13.40;100.00;101517.13;5009303;28;20052;-70
2021/12/31 07:20:59;;;;;;;5.78;2.50;;;;;;;13.39;100.00;101519.03;5064193;28;20286;-69
2021/12/31 07:23:24;;;;;;;5.78;2.60;;;;;;;13.53;100.00;101519.22;5061230;28;20035;-69
2021/12/31 07:25:51;;;;;;;5.38;2.70;;;;;;;13.32;100.00;101514.94;5065109;28;20051;-70
2021/12/31 07:28:17;;;;;;;5.47;2.83;;;;;;;13.33;100.00;101535.88;5063488;28;20040;-69
2021/12/31 07:30:44;;;;;;;7.15;2.72;;;;;;;13.49;100.00;101522.84;5041203;28;20323;-69
2021/12/31 07:33:15;;;;;;;3.92;2.90;;;;;;;13.53;100.00;101526.69;5046040;28;20083;-70
2021/12/31 07:35:41;;;;;;;5.97;2.72;;;;;;;13.29;100.00;101529.25;5043801;28;20068;-69
2021/12/31 07:38:11;;;;;;;5.78;2.65;;;;;;;13.71;100.00;101511.41;5042218;28;20529;-70
2021/12/31 07:40:41;;;;;;;4.78;2.35;;;;;;;13.36;100.00;101496.75;5045768;28;20130;-70
2021/12/31 07:43:09;;;;;;;4.20;2.33;;;;;;;13.49;100.00;101522.84;5044188;28;20258;-71
2021/12/31 07:45:35;;;;;;;5.10;2.40;;;;;;;13.50;100.00;101508.78;5043906;28;20032;-70
2021/12/31 07:48:01;;;;;;;5.50;2.22;;;;;;;13.37;100.00;101512.16;5059623;28;20028;-70
2021/12/31 07:50:27;;;;;;;5.28;2.38;;;;;;;13.23;100.00;101510.03;5055562;28;20029;-69
2021/12/31 07:52:52;;;;;;;3.90;2.85;;;;;;;13.12;100.00;101513.94;5042393;28;20082;-70
2021/12/31 07:55:18;;;;;;;5.65;2.63;;;;;;;13.16;100.00;101514.19;5024964;28;20407;-70
2021/12/31 07:57:43;;;;;;;4.45;2.92;;;;;;;13.40;100.00;101530.88;5042712;28;20040;-70
2021/12/31 08:00:10;;;;;;;6.78;2.85;;;;;;;13.41;100.00;101516.00;5043807;28;20130;-69
2021/12/31 08:02:36;;;;;;;4.72;2.45;;;;;;;13.31;100.00;101516.03;5048069;28;20033;-69
2021/12/31 08:05:01;;;;;;;6.45;2.63;;;;;;;13.50;100.00;101536.31;5061447;28;20021;-69
2021/12/31 08:07:27;;;;;;;6.93;2.50;;;;;;;13.63;100.00;101534.06;5047358;28;20336;-71
2021/12/31 08:09:52;;;;;;;5.05;2.90;;;;;;;13.49;100.00;101540.19;5049393;28;20136;-68
2021/12/31 08:12:18;;;;;;;6.82;2.38;;;;;;;13.64;100.00;101535.69;5044861;28;20174;-68
2021/12/31 08:14:43;;;;;;;5.57;2.65;;;;;;;13.44;100.00;101540.22;5047034;28;20127;-71
2021/12/31 08:17:08;;;;;;;5.40;2.80;;;;;;;13.36;100.00;101530.63;5040768;28;20032;-70
2021/12/31 08:19:34;;;;;;;4.85;2.40;;;;;;;13.25;100.00;101531.75;5048396;28;20115;-68
2021/12/31 08:22:00;;;;;;;7.25;2.40;;;;;;;13.41;100.00;101527.84;5024092;28;20181;-69
2021/12/31 08:24:25;;;;;;;4.07;2.88;;;;;;;13.15;100.00;101523.53;5041049;28;20116;-69
2021/12/31 08:26:50;;;;;;;4.20;2.47;;;;;;;13.29;100.00;101527.31;5041255;28;20036;-69
2021/12/31 08:29:17;;;;;;;6.47;2.95;;;;;;;13.37;100.00;101512.97;5043686;28;20430;-70
2021/12/31 08:31:43;;;;;;;4.80;2.72;;;;;;;13.30;100.00;101528.13;5042912;28;20147;-69
2021/12/31 08:34:09;;;;;;;4.82;2.55;;;;;;;13.32;100.00;101523.19;5012640;28;20024;-69
2021/12/31 08:36:35;;;;;;;5.38;2.78;;;;;;;13.37;100.00;101531.44;5063696;28;20087;-68
2021/12/31 08:39:07;;;;;;;4.15;2.60;;;;;;;13.24;100.00;101527.34;5045078;28;20659;-69
2021/12/31 08:41:33;;;;;;;6.13;2.92;;;;;;;13.58;100.00;101538.47;5063985;28;20063;-69
2021/12/31 08:43:58;;;;;;;5.20;2.40;;;;;;;13.21;100.00;101542.50;5048087;28;20036;-70
2021/12/31 08:46:24;;;;;;;6.47;3.00;;;;;;;13.15;100.00;101560.16;5044392;28;20212;-69
2021/12/31 08:48:49;;;;;;;5.43;3.00;;;;;;;13.36;100.00;101546.31;5062527;28;20439;-70
2021/12/31 08:51:18;;;;;;;6.97;2.70;;;;;;;13.55;100.00;101549.25;5061569;28;20044;-70
2021/12/31 08:53:43;;;;;;;6.72;3.33;;;;;;;13.34;100.00;101527.31;5061120;28;20510;-71
2021/12/31 08:56:09;;;;;;;6.00;2.63;;;;;;;13.34;100.00;101548.53;5064535;28;20028;-69
2021/12/31 08:58:34;;;;;;;5.35;2.88;;;;;;;13.58;100.00;101541.22;5062598;28;20039;-69
2021/12/31 09:01:00;;;;;;;5.13;2.50;;;;;;;13.37;100.00;101540.53;5062823;28;20067;-69
2021/12/31 09:03:35;;;;;;;6.22;2.63;;;;;;;13.39;100.00;101554.00;5060437;28;20093;-67
2021/12/31 09:06:00;;;;;;;5.60;3.10;;;;;;;13.56;100.00;101537.09;5048565;28;20107;-69
2021/12/31 09:08:25;;;;;;;5.75;2.78;;;;;;;13.37;100.00;101531.44;5039481;28;20123;-69
2021/12/31 09:10:51;;;;;;;4.38;2.50;;;;;;;13.42;100.00;101536.94;5045987;28;20074;-71
2021/12/31 09:13:17;;;;;;;5.72;2.58;;;;;;;13.53;100.00;101548.72;5061835;28;20547;-70
2021/12/31 09:15:43;;;;;;;7.53;2.63;;;;;;;13.57;100.00;101569.88;5044490;28;20036;-70
2021/12/31 09:18:09;;;;;;;5.53;2.90;;;;;;;13.53;100.00;101568.81;5044262;28;20028;-69
2021/12/31 09:20:34;;;;;;;4.85;2.70;;;;;;;13.35;100.00;101577.75;5057947;28;20327;-69
2021/12/31 09:23:00;;;;;;;4.78;2.83;;;;;;;13.65;100.00;101589.69;5059758;28;20042;-69
2021/12/31 09:25:26;;;;;;;5.25;2.78;;;;;;;13.47;100.00;101589.22;5058372;28;20038;-70
2021/12/31 09:27:51;;;;;;;4.22;2.58;;;;;;;13.38;100.00;101591.75;5059906;28;20123;-69
2021/12/31 09:30:17;;;;;;;8.05;2.75;;;;;;;13.29;100.00;101562.31;5043449;28;20132;-69
2021/12/31 09:32:43;;;;;;;5.95;2.75;;;;;;;13.70;100.00;101553.84;5043649;28;20047;-70
2021/12/31 09:35:09;;;;;;;4.88;2.72;;;;;;;13.80;100.00;101570.28;5043051;28;20487;-68
2021/12/31 09:37:34;;;;;;;5.75;2.55;;;;;;;13.65;100.00;101598.78;5057296;28;20149;-69
2021/12/31 09:40:00;;;;;;;7.65;2.67;;;;;;;13.74;100.00;101601.75;5044215;28;20052;-70
2021/12/31 09:42:26;;;;;;;6.32;2.83;;;;;;;13.91;100.00;101607.69;5044489;28;20029;-71
2021/12/31 09:44:51;;;;;;;5.78;2.70;;;;;;;13.74;100.00;101601.75;5025858;28;20037;-70
2021/12/31 09:47:18;;;;;;;3.17;2.70;;;;;;;13.79;100.00;101579.69;5040552;28;20033;-70
2021/12/31 09:49:48;;;;;;;4.60;2.58;;;;;;;13.41;100.00;101576.59;5022290;28;20037;-70
2021/12/31 09:52:14;;;;;;;6.55;2.72;;;;;;;13.64;100.00;101591.59;5039635;28;20064;-69
2021/12/31 09:54:48;;;;;;;6.18;2.70;;;;;;;13.73;100.00;101562.34;5039879;28;20128;-70
2021/12/31 09:57:15;;;;;;;4.97;2.38;;;;;;;14.01;100.00;101561.88;5041367;28;20021;-69
2021/12/31 09:59:41;;;;;;;6.32;2.53;;;;;;;13.77;100.00;101588.25;5038378;28;20809;-71
2021/12/31 10:02:09;;;;;;;5.70;3.22;;;;;;;13.80;100.00;101595.09;5041277;28;20021;-70
2021/12/31 10:04:58;;;;;;;7.03;2.63;;;;;;;13.71;100.00;101602.34;5038330;28;20032;-70
2021/12/31 10:07:24;;;;;;;6.35;2.63;;;;;;;14.01;100.00;101584.75;5037726;28;20020;-70
2021/12/31 10:10:15;;;;;;;3.70;2.72;;;;;;;13.79;100.00;101596.22;5043231;28;20503;-68
2021/12/31 10:12:57;;;;;;;5.97;2.70;;;;;;;13.72;100.00;101576.41;5056719;28;20037;-70
2021/12/31 10:15:24;;;;;;;5.75;2.97;;;;;;;14.03;100.00;101568.75;5061613;28;20036;-69
2021/12/31 10:17:51;;;;;;;7.35;2.70;;;;;;;13.79;100.00;101555.69;5065137;28;20028;-69
2021/12/31 10:20:17;;;;;;;6.45;2.92;;;;;;;14.02;100.00;101539.53;5063889;28;20082;-70
2021/12/31 10:22:44;;;;;;;7.53;3.20;;;;;;;14.06;100.00;101520.50;5060936;28;20031;-70
2021/12/31 10:25:19;;;;;;;5.13;3.00;;;;;;;14.11;100.00;101490.91;5065472;28;20447;-68
2021/12/31 10:27:45;;;;;;;6.03;3.00;;;;;;;14.16;100.00;101490.06;5063041;28;20530;-70
2021/12/31 10:30:10;;;;;;;5.35;2.60;;;;;;;14.06;100.00;101488.22;5064402;28;20028;-70
2021/12/31 10:32:40;;;;;;;6.07;3.35;;;;;;;13.97;100.00;101510.09;5063687;28;20059;-72
2021/12/31 10:35:10;;;;;;;5.50;3.15;;;;;;;13.94;100.00;101524.44;5041051;28;20024;-71
2021/12/31 10:37:44;;;;;;;7.32;3.13;;;;;;;14.03;100.00;101537.59;5062758;28;20041;-71
2021/12/31 10:40:11;;;;;;;7.50;2.65;;;;;;;14.31;100.00;101549.75;5062964;28;20041;-71
2021/12/31 10:42:37;;;;;;;7.03;3.03;;;;;;;13.98;100.00;101546.72;5029164;28;20039;-71
2021/12/31 10:45:05;;;;;;;6.82;3.08;;;;;;;14.12;100.00;101578.06;5048446;28;20017;-71
2021/12/31 10:47:47;;;;;;;5.97;3.00;;;;;;;14.25;100.00;101560.03;5045685;28;20063;-69
2021/12/31 10:50:19;;;;;;;5.25;2.88;;;;;;;14.54;100.00;101556.44;5046081;28;20032;-71
2021/12/31 10:52:58;;;;;;;7.35;2.75;;;;;;;14.35;100.00;101589.44;5043507;28;20121;-69
2021/12/31 10:55:34;;;;;;;6.53;2.78;;;;;;;14.34;100.00;101561.03;5052051;28;20071;-70
2021/12/31 10:58:03;;;;;;;6.30;2.75;;;;;;;14.55;100.00;101557.28;5066426;28;20040;-71
2021/12/31 11:00:39;;;;;;;9.93;3.10;;;;;;;14.52;100.00;101555.91;5049615;28;20424;-71
2021/12/31 11:03:05;;;;;;;5.57;2.90;;;;;;;14.58;100.00;101568.53;5064282;28;20561;-71
2021/12/31 11:05:31;;;;;;;7.15;3.10;;;;;;;14.44;100.00;101573.09;5060558;28;20039;-70
2021/12/31 11:08:06;;;;;;;5.07;2.45;;;;;;;14.31;100.00;101561.63;5060431;28;20141;-71
2021/12/31 11:10:37;;;;;;;6.50;2.88;;;;;;;13.94;100.00;101559.47;5060137;28;20012;-68
2021/12/31 11:13:20;;;;;;;7.70;3.25;;;;;;;13.91;100.00;101544.31;5065864;28;20025;-70
2021/12/31 11:15:49;;;;;;;5.03;2.72;;;;;;;14.20;100.00;101545.44;5041990;28;20043;-69
2021/12/31 11:18:18;;;;;;;7.13;3.10;;;;;;;14.03;100.00;101554.16;5028227;28;20025;-72
2021/12/31 11:20:45;;;;;;;8.05;3.35;;;;;;;14.04;100.00;101556.63;5041260;28;20325;-69